Latest Weather Observations for Lameroo AWS

IDS60801

Issued at 11:35 pm CST Monday 22 September 2014 (issued every 30 minutes, with the page automatically refreshed every 10 minutes)

About weather observations | Map of weather stations | Latest weather observations for SA | Other Formats
Station Details ID: 025562 Name: AUSTIN PLAINS Lat: -35.38 Lon: 140.54 Height: 110.08 m
Data from the previous 72 hours. | See also: Recent months at Lameroo AWS
Date/Time
CST
Temp
°C
App
Temp
°C
Dew
Point
Rel
Hum
%
Delta-T
°C
Wind Press
QNH
hPa
Press
MSL
hPa
Rain
since 9 am
mm
Dir
 
Spd
km/h
Gust
km/h
Spd
kts
Gust
kts
22/11:30pm 8.9 4.6 -1.5 48 4.0 E 11 13 6 7 1023.7 1023.7 0.0
22/11:00pm 8.7 3.7 -1.4 49 3.9 E 15 15 8 8 1023.8 1023.8 0.0
22/10:30pm 9.8 4.4 -1.6 45 4.4 E 17 20 9 11 1023.8 1023.8 0.0
22/10:00pm 10.1 5.3 -2.2 42 4.7 ENE 13 13 7 7 1024.0 1024.0 0.0
22/09:30pm 11.9 7.0 -3.1 35 5.7 ENE 13 13 7 7 1024.1 1024.1 0.0
22/09:00pm 12.5 8.0 -2.9 34 5.9 E 11 13 6 7 1024.2 1024.2 0.0
22/08:30pm 13.6 8.7 -3.2 31 6.5 ENE 13 13 7 7 1024.2 1024.2 0.0
22/08:00pm 14.4 9.9 -3.4 29 7.0 ENE 11 13 6 7 1023.9 1023.9 0.0
22/07:30pm 16.0 11.8 -4.0 25 7.8 NE 9 9 5 5 1023.6 1023.6 0.0
22/07:00pm 16.7 12.5 -3.9 24 8.2 ENE 9 9 5 5 1023.3 1023.3 0.0
22/06:30pm 18.8 15.1 -4.6 20 9.3 ENE 6 9 3 5 1022.9 1023.0 0.0
22/06:00pm 21.3 17.3 -5.5 16 10.7 N 7 9 4 5 1022.6 1022.7 0.0
22/05:30pm 22.5 18.6 -4.5 16 11.2 N 7 9 4 5 1022.4 1022.5 0.0
22/05:00pm 24.5 19.3 -6.7 12 12.7 N 13 17 7 9 1022.3 1022.4 0.0
22/04:30pm 25.1 19.4 -7.4 11 13.0 N 15 20 8 11 1022.1 1022.2 0.0
22/04:00pm 25.5 19.4 -8.3 10 13.5 N 17 24 9 13 1022.1 1022.2 0.0
22/03:30pm 25.9 19.9 -6.8 11 13.4 NNE 17 20 9 11 1022.3 1022.4 0.0
22/03:00pm 25.6 19.0 -7.0 11 13.2 N 20 26 11 14 1022.6 1022.7 0.0
22/02:30pm 25.5 19.9 -6.0 12 13.0 NE 15 30 8 16 1022.9 1023.0 0.0
22/02:00pm 25.5 19.2 -6.0 12 13.1 NNE 19 30 10 16 1023.3 1023.3 0.0
22/01:30pm 25.1 20.0 -5.2 13 12.7 N 13 24 7 13 1023.7 1023.7 0.0
22/01:00pm 24.6 19.2 -4.6 14 12.3 N 15 22 8 12 1024.0 1024.0 0.0
22/12:30pm 24.3 18.1 -4.9 14 12.2 N 19 32 10 17 1024.5 1024.5 0.0
22/12:00pm 23.9 16.7 -5.2 14 12.0 N 24 30 13 16 1025.2 1025.2 0.0
22/11:30am 23.0 17.4 -3.3 17 11.2 NNE 17 26 9 14 1025.6 1025.6 0.0
22/11:00am 22.7 16.8 -2.1 19 10.8 NNE 19 30 10 16 1026.1 1026.1 0.0
22/10:30am 22.0 16.1 -2.0 20 10.4 NNE 19 30 10 16 1026.7 1026.7 0.0
22/10:00am 20.9 15.4 1.7 28 8.9 NNE 20 26 11 14 1027.0 1027.0 0.0
22/09:30am 18.9 12.9 3.1 35 7.4 NNE 24 30 13 16 1027.3 1027.3 0.0
22/09:00am 16.9 11.3 3.6 41 6.2 NE 22 28 12 15 1027.6 1027.6 0.0
22/08:30am 15.4 10.2 3.5 45 5.4 NE 20 28 11 15 1027.8 1027.8 0.0
22/08:00am 13.4 8.7 3.2 50 4.6 NE 17 20 9 11 1027.8 1027.8 0.0
22/07:30am 9.7 6.1 2.8 62 2.9 ENE 11 15 6 8 1027.7 1027.7 0.0
22/07:00am 5.8 1.5 1.3 73 1.8 ENE 13 15 7 8 1027.6 1027.6 0.0
22/06:30am 3.4 -1.8 0.1 79 1.2 E 17 17 9 9 1027.4 1027.4 0.0
22/06:00am 2.7 -2.2 -0.4 80 1.1 E 15 15 8 8 1027.3 1027.3 0.0
22/05:30am 3.1 -1.0 -0.4 78 1.3 ENE 11 13 6 7 1027.1 1027.1 0.0
22/05:00am 2.6 -1.9 -0.2 82 1.0 E 13 13 7 7 1026.8 1026.8 0.0
22/04:30am 2.9 -1.6 -0.2 80 1.1 E 13 15 7 8 1026.6 1026.6 0.0
22/04:00am 2.8 -2.1 -0.3 80 1.1 E 15 15 8 8 1026.3 1026.3 0.0
22/03:30am 3.0 -1.8 0.1 81 1.1 E 15 15 8 8 1026.4 1026.4 0.0
22/03:00am 2.7 -2.2 -0.6 79 1.2 E 15 15 8 8 1026.4 1026.4 0.0
22/02:30am 3.9 -0.9 0.2 77 1.4 E 15 17 8 9 1026.5 1026.5 0.0
22/02:00am 4.6 -0.2 0.4 74 1.6 E 15 15 8 8 1026.9 1026.9 0.0
22/01:30am 4.1 -0.7 0.3 76 1.4 E 15 17 8 9 1027.1 1027.1 0.0
22/01:00am 4.5 0.1 0.1 73 1.7 E 13 15 7 8 1027.6 1027.6 0.0
22/12:30am 5.8 1.1 0.8 70 2.0 ESE 15 15 8 8 1027.7 1027.7 0.0
22/12:00am 6.4 1.7 0.9 68 2.2 ESE 15 15 8 8 1027.8 1027.8 0.0
 
Date/Time
CST
Temp
°C
App
Temp
°C
Dew
Point
Rel
Hum
%
Delta-T
°C
Wind Press
QNH
hPa
Press
MSL
hPa
Rain
since 9 am
mm
Dir
 
Spd
km/h
Gust
km/h
Spd
kts
Gust
kts
21/11:30pm 8.2 3.5 1.1 61 2.9 ESE 15 17 8 9 1027.9 1028.0 0.0
21/11:00pm 9.0 4.0 1.4 59 3.1 ESE 17 19 9 10 1027.9 1028.0 0.0
21/10:30pm 8.5 3.1 1.2 60 3.0 ESE 19 20 10 11 1028.1 1028.2 0.0
21/10:00pm 8.9 3.6 1.6 60 3.0 ESE 19 20 10 11 1028.1 1028.2 0.0
21/09:30pm 7.2 2.5 0.6 63 2.6 ESE 15 17 8 9 1028.1 1028.2 0.0
21/09:00pm 8.3 3.5 0.5 58 3.1 SE 15 15 8 8 1028.2 1028.3 0.0
21/08:30pm 9.2 4.1 0.6 55 3.5 SSE 17 17 9 9 1028.0 1028.1 0.0
21/08:00pm 10.0 4.8 0.3 51 3.9 SSE 17 19 9 10 1027.9 1028.0 0.0
21/07:30pm 11.0 6.2 0.1 47 4.4 SSE 15 17 8 9 1027.6 1027.6 0.0
21/07:00pm 12.3 7.4 -0.2 42 5.1 SSE 15 17 8 9 1027.4 1027.4 0.0
21/06:30pm 16.2 12.5 -0.1 33 6.9 SSE 9 13 5 7 1027.3 1027.3 0.0
21/06:00pm 19.3 17.0 -2.3 23 9.0 CALM 0 0 0 0 1027.1 1027.1 0.0
21/05:30pm 19.9 17.0 -1.2 24 9.1 ESE 4 6 2 3 1026.9 1026.9 0.0
21/05:00pm 21.0 17.3 -2.8 20 10.1 E 7 9 4 5 1026.7 1026.7 0.0
21/04:30pm 21.5 18.2 -1.1 22 9.9 SE 6 7 3 4 1026.7 1026.7 0.0
21/04:00pm 21.5 18.4 0.1 24 9.6 SSE 6 9 3 5 1026.9 1026.9 0.0
21/03:30pm 21.1 18.4 0.3 25 9.3 SSE 4 9 2 5 1027.3 1027.3 0.0
21/03:00pm 21.7 19.6 1.4 26 9.3 NNW 2 7 1 4 1027.6 1027.6 0.0
21/02:30pm 20.7 17.6 1.1 27 8.9 E 7 13 4 7 1028.1 1028.2 0.0
21/02:00pm 20.5 18.0 1.4 28 8.8 SSE 4 15 2 8 1028.4 1028.5 0.0
21/01:30pm 19.9 16.8 1.4 29 8.4 E 7 15 4 8 1028.7 1028.8 0.0
21/01:00pm 19.4 15.9 1.4 30 8.2 SE 9 19 5 10 1029.3 1029.4 0.0
21/12:30pm 19.1 16.6 1.6 31 7.9 ESE 4 15 2 8 1029.7 1029.8 0.0
21/12:00pm 18.5 15.0 1.5 32 7.6 SSE 9 17 5 9 1030.1 1030.2 0.0
21/11:30am 18.4 15.2 3.1 36 7.1 ESE 9 19 5 10 1030.6 1030.7 0.0
21/11:00am 17.8 14.6 3.3 38 6.8 E 9 15 5 8 1030.9 1031.0 0.0
21/10:30am 17.0 13.5 3.3 40 6.3 ENE 11 20 6 11 1031.1 1031.2 0.0
21/10:00am 15.9 12.1 3.7 44 5.6 NE 13 19 7 10 1031.5 1031.6 0.0
21/09:30am 15.2 10.8 4.6 49 4.9 ENE 17 22 9 12 1031.5 1031.6 0.0
21/09:00am 13.9 8.9 4.5 53 4.3 ENE 20 26 11 14 1031.7 1031.8 0.0
21/08:30am 12.9 8.2 5.1 59 3.6 ENE 19 24 10 13 1031.5 1031.6 0.0
21/08:00am 10.5 5.6 5.3 70 2.4 E 20 24 11 13 1031.3 1031.4 0.0
21/07:30am 8.1 3.2 5.2 82 1.3 E 20 26 11 14 1031.0 1031.1 0.0
21/07:00am 5.4 1.6 3.9 90 0.6 E 13 19 7 10 1030.9 1031.0 0.0
21/06:30am 3.5 -1.0 2.3 92 0.5 E 15 15 8 8 1030.4 1030.5 0.0
21/06:00am 3.9 -0.5 2.7 92 0.5 E 15 19 8 10 1030.2 1030.3 0.0
21/05:30am 3.9 -0.5 2.7 92 0.5 E 15 17 8 9 1029.8 1029.9 0.0
21/05:00am 4.2 -0.5 2.9 91 0.5 E 17 19 9 10 1029.4 1029.5 0.0
21/04:30am 4.4 -0.3 2.9 90 0.6 E 17 19 9 10 1028.9 1029.0 0.0
21/04:00am 5.1 0.1 3.4 89 0.7 ESE 19 20 10 11 1028.8 1028.9 0.0
21/03:30am 4.3 -0.1 2.7 89 0.6 E 15 19 8 10 1028.4 1028.5 0.0
21/03:00am 4.5 -0.3 2.5 87 0.8 ESE 17 17 9 9 1028.4 1028.5 0.0
21/02:30am 5.0 0.5 2.4 83 1.0 ESE 15 17 8 9 1028.5 1028.6 0.0
21/02:00am 6.0 1.3 3.0 81 1.3 ESE 17 20 9 11 1028.5 1028.6 0.0
21/01:30am 5.2 0.4 2.4 82 1.1 E 17 19 9 10 1028.6 1028.7 0.0
21/01:00am 4.5 -0.1 1.7 82 1.1 E 15 17 8 9 1028.8 1028.9 0.0
21/12:30am 6.1 1.6 2.2 76 1.6 E 15 17 8 9 1029.0 1029.1 0.0
21/12:00am 7.8 3.0 2.7 70 2.1 ESE 17 20 9 11 1029.1 1029.2 0.0
 
Date/Time
CST
Temp
°C
App
Temp
°C
Dew
Point
Rel
Hum
%
Delta-T
°C
Wind Press
QNH
hPa
Press
MSL
hPa
Rain
since 9 am
mm
Dir
 
Spd
km/h
Gust
km/h
Spd
kts
Gust
kts
20/11:30pm 8.4 3.3 3.1 69 2.2 SE 19 20 10 11 1029.2 1029.3 0.0
20/11:00pm 8.7 3.9 2.7 66 2.6 SE 17 19 9 10 1029.2 1029.3 0.0
20/10:30pm 9.3 4.5 2.6 63 2.8 SE 17 20 9 11 1029.2 1029.3 0.0
20/10:00pm 9.2 4.1 2.8 64 2.7 SSE 19 22 10 12 1029.1 1029.2 0.0
20/09:30pm 8.8 3.9 2.2 63 2.8 SSE 17 19 9 10 1029.2 1029.3 0.0
20/09:00pm 9.3 4.1 2.2 61 3.0 SSE 19 19 10 10 1028.9 1029.0 0.0
20/08:30pm 9.6 5.0 1.8 58 3.2 SE 15 19 8 10 1028.6 1028.7 0.0
20/08:00pm 8.7 3.4 1.6 61 2.9 SSE 19 19 10 10 1028.3 1028.4 0.0
20/07:30pm 10.6 5.7 1.7 54 3.7 SSE 17 19 9 10 1028.0 1028.1 0.0
20/07:00pm 11.9 7.3 1.5 49 4.4 SE 15 17 8 9 1027.7 1027.7 0.0
20/06:30pm 12.2 7.5 1.2 47 4.6 SSE 15 17 8 9 1027.4 1027.4 0.0
20/06:00pm 15.4 10.3 0.8 37 6.3 SSE 17 19 9 10 1026.9 1026.9 0.0
20/05:30pm 17.9 13.2 0.6 31 7.6 SSE 15 22 8 12 1026.5 1026.5 0.0
20/05:00pm 19.5 15.9 0.5 28 8.5 S 9 15 5 8 1026.0 1026.0 0.0
20/04:30pm 20.5 17.5 0.9 27 8.8 SSW 6 13 3 7 1025.9 1025.9 0.0
20/04:00pm 20.3 17.2 0.2 26 9.0 SW 6 11 3 6 1025.8 1025.8 0.0
20/03:30pm 20.4 18.1 0.3 26 9.0 S 2 7 1 4 1025.7 1025.7 0.0
20/03:00pm 20.4 16.4 0.8 27 8.8 S 11 26 6 14 1025.7 1025.7 0.0
20/02:30pm 19.6 16.2 -0.4 26 8.7 WNW 7 11 4 6 1025.8 1025.8 0.0
20/02:00pm 19.1 15.9 -0.3 27 8.5 N 6 11 3 6 1025.7 1025.7 0.0
20/01:30pm 19.2 15.6 0.3 28 8.3 SE 9 17 5 9 1026.0 1026.0 0.0
20/01:00pm 18.7 15.9 -0.7 27 8.4 N 4 11 2 6 1026.2 1026.2 0.0
20/12:30pm 18.4 14.3 0.1 29 8.0 E 11 20 6 11 1026.5 1026.5 0.0
20/12:00pm 17.9 14.7 0.6 31 7.6 E 7 15 4 8 1027.0 1027.0 0.0
20/11:30am 17.9 14.9 0.6 31 7.6 ENE 6 11 3 6 1027.4 1027.4 0.0
20/11:00am 17.2 13.4 2.0 36 6.9 E 11 20 6 11 1027.8 1027.8 0.0
20/10:30am 16.8 12.2 3.8 42 6.0 ENE 17 26 9 14 1028.1 1028.2 0.0
20/10:00am 15.9 11.1 4.9 48 5.2 ENE 19 22 10 12 1028.4 1028.5 0.0
20/09:30am 15.5 10.7 5.7 52 4.7 ENE 20 28 11 15 1028.4 1028.5 0.0
20/09:00am 13.9 7.9 5.5 57 3.9 ENE 26 30 14 16 1028.2 1028.3 0.0
20/08:30am 12.3 6.8 5.9 65 3.0 ENE 24 28 13 15 1028.1 1028.2 0.0
20/08:00am 10.5 5.8 5.9 73 2.1 E 20 24 11 13 1027.9 1028.0 0.0
20/07:30am 8.1 3.9 5.6 84 1.1 E 17 22 9 12 1027.7 1027.7 0.0
20/07:00am 5.5 1.4 4.2 91 0.6 E 15 19 8 10 1027.3 1027.3 0.0
20/06:30am 3.4 -1.1 2.4 93 0.4 E 15 17 8 9 1027.0 1027.0 0.0
20/06:00am 2.7 -2.2 1.7 93 0.4 E 17 17 9 9 1026.5 1026.5 0.0
20/05:30am 2.5 -2.2 1.2 91 0.5 E 15 19 8 10 1026.1 1026.1 0.0
20/05:00am 3.4 -1.5 2.2 92 0.5 E 17 19 9 10 1025.6 1025.6 0.0
20/04:30am 2.1 -2.2 0.8 91 0.5 E 13 17 7 9 1025.3 1025.3 0.0
20/04:00am 3.4 -1.2 1.4 87 0.8 E 15 17 8 9 1024.9 1024.9 0.0
20/03:30am 4.1 -1.2 1.6 84 1.0 E 19 20 10 11 1024.6 1024.6 0.0
20/03:00am 4.0 -1.0 1.4 83 1.0 ESE 17 19 9 10 1024.7 1024.7 0.0
20/02:30am 4.5 -0.5 1.4 80 1.2 ESE 17 19 9 10 1024.6 1024.6 0.0
20/02:00am 4.9 -0.4 1.6 79 1.3 ESE 19 20 10 11 1024.7 1024.7 0.0
20/01:30am 5.3 0.4 1.8 78 1.4 ESE 17 19 9 10 1024.9 1024.9 0.0
20/01:00am 5.1 0.5 1.4 77 1.5 ESE 15 17 8 9 1025.0 1025.0 0.0
20/12:30am 6.0 0.7 1.7 74 1.7 ESE 19 20 10 11 1024.9 1024.9 0.0
20/12:00am 5.7 0.4 1.6 75 1.6 ESE 19 20 10 11 1025.1 1025.1 0.0

Other Formats:

Comma delimited format used in spreadsheet applications
http://www.bom.gov.au/fwo/IDS60801/IDS60801.94690.axf

JavaScript Object Notation format (JSON) in row-major order
http://www.bom.gov.au/fwo/IDS60801/IDS60801.94690.json